Time;durP1;ratioP1;P1;durP2;ratioP2;P2;SDS_P1;SDS_P2;PMS_P1;PMS_P2;Temp;Humidity;BMP_temperature;BMP_pressure;BME280_temperature;BME280_humidity;BME280_pressure;Samples;Min_cycle;Max_cycle;Signal;HPM_P1;HPM_P2
2021/03/05 00:00:41;;;;;;;12.55;4.85;;;;;;;1.25;79.75;100620.13;1663195;83;25770;-81
2021/03/05 00:03:10;;;;;;;8.18;4.08;;;;;;;1.22;79.40;100617.73;1698577;82;26002;-80
2021/03/05 00:05:41;;;;;;;14.25;4.62;;;;;;;1.22;79.26;100619.56;1677979;82;25958;-81
2021/03/05 00:08:09;;;;;;;;;;;;;;;1.22;79.11;100620.88;1714224;82;25800;-80
2021/03/05 00:10:40;;;;;;;8.40;3.10;;;;;;;1.20;78.76;100625.41;1729101;82;26562;-81
2021/03/05 00:13:09;;;;;;;8.65;3.62;;;;;;;1.17;78.30;100627.85;1714396;82;25953;-81
2021/03/05 00:15:40;;;;;;;7.08;4.12;;;;;;;1.14;78.01;100627.24;1725340;81;27393;-81
2021/03/05 00:18:08;;;;;;;8.95;2.98;;;;;;;1.12;78.01;100625.22;1688061;82;26670;-81
2021/03/05 00:20:40;;;;;;;12.82;3.45;;;;;;;1.10;77.79;100624.50;1698827;82;25830;-81
2021/03/05 00:23:08;;;;;;;7.17;2.62;;;;;;;1.09;77.94;100626.30;1732403;82;26464;-81
2021/03/05 00:25:36;;;;;;;9.13;3.55;;;;;;;1.07;77.69;100631.38;1722797;82;25757;-80
2021/03/05 00:28:04;;;;;;;7.42;3.08;;;;;;;1.07;77.85;100632.69;1710956;82;28308;-80
2021/03/05 00:30:33;;;;;;;10.78;3.22;;;;;;;1.07;77.71;100624.27;1706468;82;25878;-80
2021/03/05 00:33:03;;;;;;;11.18;3.12;;;;;;;1.06;77.48;100625.72;1708953;83;26432;-81
2021/03/05 00:35:30;;;;;;;8.53;2.65;;;;;;;1.06;77.74;100634.95;1709688;82;26518;-80
2021/03/05 00:37:58;;;;;;;6.12;2.50;;;;;;;1.05;77.66;100632.79;1709438;82;25871;-81
2021/03/05 00:40:25;;;;;;;5.85;2.60;;;;;;;1.05;77.69;100631.47;1717749;82;28477;-81
2021/03/05 00:42:53;;;;;;;7.95;2.90;;;;;;;1.06;77.54;100631.00;1704641;82;25988;-82
2021/03/05 00:45:23;;;;;;;8.38;3.10;;;;;;;1.04;77.52;100627.65;1711776;82;25809;-81
2021/03/05 00:47:51;;;;;;;12.13;3.17;;;;;;;1.05;77.61;100628.02;1711175;82;25822;-81
2021/03/05 00:50:20;;;;;;;6.75;2.87;;;;;;;1.07;77.70;100624.78;1707124;82;25768;-80
2021/03/05 00:52:51;;;;;;;8.18;3.65;;;;;;;1.08;77.71;100625.11;1715587;82;28490;-81
2021/03/05 00:55:20;;;;;;;7.97;2.83;;;;;;;1.09;77.63;100619.70;1706031;82;26181;-82
2021/03/05 00:57:49;;;;;;;6.75;3.08;;;;;;;1.08;77.40;100622.00;1727466;81;25838;-82
2021/03/05 01:00:18;;;;;;;7.25;3.35;;;;;;;1.06;77.55;100621.30;1721334;82;25613;-81
2021/03/05 01:02:47;;;;;;;7.80;2.97;;;;;;;1.07;77.49;100619.50;1715604;82;25940;-81
2021/03/05 01:05:14;;;;;;;8.85;3.25;;;;;;;1.02;77.47;100608.48;1705878;82;27104;-82
2021/03/05 01:07:42;;;;;;;9.00;3.85;;;;;;;1.05;77.34;100619.60;1669298;83;25833;-80
2021/03/05 01:10:12;;;;;;;13.43;4.17;;;;;;;1.02;77.41;100616.39;1705138;82;25805;-80
2021/03/05 01:12:40;;;;;;;11.97;3.95;;;;;;;1.01;77.45;100614.70;1702071;82;25922;-80
2021/03/05 01:15:10;;;;;;;8.58;3.37;;;;;;;1.00;77.57;100616.53;1702936;82;25385;-80
2021/03/05 01:17:37;;;;;;;11.33;4.00;;;;;;;1.00;77.66;100615.68;1731792;82;27524;-80
2021/03/05 01:20:16;;;;;;;10.43;4.60;;;;;;;0.99;77.61;100610.88;1682123;83;26260;-81
2021/03/05 01:22:44;;;;;;;9.98;4.25;;;;;;;1.00;77.73;100610.41;1680160;83;26239;-80
2021/03/05 01:25:16;;;;;;;13.25;4.67;;;;;;;0.99;77.65;100609.56;1690886;83;26084;-80
2021/03/05 01:27:44;;;;;;;14.28;4.60;;;;;;;1.00;77.66;100611.25;1692359;82;26064;-81
2021/03/05 01:30:12;;;;;;;11.00;4.78;;;;;;;0.98;77.67;100603.10;1650308;86;27604;-81
2021/03/05 01:32:40;;;;;;;9.83;4.90;;;;;;;0.95;77.69;100612.09;1695189;83;26273;-81
2021/03/05 01:35:20;;;;;;;8.80;4.30;;;;;;;0.93;77.82;100613.18;1686636;83;25877;-80
2021/03/05 01:37:48;;;;;;;9.05;3.87;;;;;;;0.90;77.94;100614.77;1690196;83;26416;-81
2021/03/05 01:40:26;;;;;;;12.40;5.30;;;;;;;0.87;78.02;100613.21;1715074;82;25332;-81
2021/03/05 01:42:54;;;;;;;8.93;3.87;;;;;;;0.85;78.08;100618.25;1714196;82;27620;-81
2021/03/05 01:45:26;;;;;;;17.77;5.85;;;;;;;0.84;78.12;100620.52;1691504;83;25847;-84
2021/03/05 01:47:57;;;;;;;8.75;4.47;;;;;;;0.81;78.17;100615.03;1720450;83;26047;-82
2021/03/05 01:50:30;;;;;;;11.48;4.45;;;;;;;0.82;78.23;100614.53;1665569;83;25889;-81
2021/03/05 01:53:05;;;;;;;12.43;4.87;;;;;;;0.82;78.24;100616.69;1690615;83;25851;-81
2021/03/05 01:55:34;;;;;;;12.05;5.97;;;;;;;0.79;78.26;100616.45;1713472;83;27590;-82
2021/03/05 01:58:01;;;;;;;10.28;5.40;;;;;;;0.78;78.27;100616.11;1697800;83;25905;-81
2021/03/05 02:00:34;;;;;;;9.88;5.37;;;;;;;0.80;78.36;100618.61;1688470;83;25927;-81
2021/03/05 02:03:01;;;;;;;9.78;4.62;;;;;;;0.80;78.38;100622.57;1712568;82;25764;-80
2021/03/05 02:05:28;;;;;;;12.60;5.00;;;;;;;0.79;78.39;100624.36;1620504;85;26472;-81
2021/03/05 02:07:56;;;;;;;16.35;4.10;;;;;;;0.77;78.36;100620.17;1684872;84;27770;-81
2021/03/05 02:10:24;;;;;;;9.18;4.55;;;;;;;0.72;78.25;100620.56;1690644;83;25858;-81
2021/03/05 02:12:51;;;;;;;12.10;4.72;;;;;;;0.70;78.36;100625.60;1680054;84;25861;-80
2021/03/05 02:15:18;;;;;;;12.58;4.60;;;;;;;0.67;78.39;100628.00;1667697;84;26426;-82
2021/03/05 02:18:25;;;;;;;7.65;4.10;;;;;;;0.65;78.47;100637.83;1702541;83;25943;-81
2021/03/05 02:21:25;;;;;;;12.93;4.53;;;;;;;0.64;78.50;100636.64;1685846;83;28540;-81
2021/03/05 02:24:10;;;;;;;8.10;4.70;;;;;;;0.61;78.50;100635.09;1671865;83;26476;-80
2021/03/05 02:27:21;;;;;;;8.95;4.45;;;;;;;0.61;78.59;100636.87;1750332;80;25888;-81
2021/03/05 02:30:08;;;;;;;10.28;3.85;;;;;;;0.61;78.55;100635.55;1775492;80;25809;-80
2021/03/05 02:33:02;;;;;;;7.87;3.33;;;;;;;0.62;78.45;100639.38;1809208;77;25766;-81
2021/03/05 02:35:32;;;;;;;8.23;3.47;;;;;;;0.56;78.53;100641.66;1790738;78;25794;-81
2021/03/05 02:38:02;;;;;;;;;;;;;;;0.54;78.51;100640.47;1752751;80;27537;-80
2021/03/05 02:40:40;;;;;;;9.58;3.58;;;;;;;0.52;78.27;100644.19;1759380;79;25479;-80
2021/03/05 02:43:16;;;;;;;8.45;3.00;;;;;;;0.46;78.37;100648.62;1760553;79;25734;-81
2021/03/05 02:45:46;;;;;;;10.13;3.20;;;;;;;0.41;78.32;100645.04;1754854;80;25810;-81
2021/03/05 02:48:29;;;;;;;5.20;2.37;;;;;;;0.41;78.43;100648.14;1772269;79;25342;-81
2021/03/05 02:51:01;;;;;;;10.08;3.02;;;;;;;0.44;78.33;100649.23;1736338;80;27536;-80
2021/03/05 02:53:30;;;;;;;5.58;2.87;;;;;;;0.41;78.32;100657.37;1707814;81;25779;-81
2021/03/05 02:56:02;;;;;;;7.72;3.00;;;;;;;0.39;78.13;100652.70;1716555;80;26020;-80
2021/03/05 02:58:31;;;;;;;9.88;2.92;;;;;;;0.36;78.26;100652.48;1743677;80;25797;-81
2021/03/05 03:01:01;;;;;;;6.60;2.45;;;;;;;0.36;78.26;100655.59;1745764;80;26069;-81
2021/03/05 03:03:29;;;;;;;7.62;2.40;;;;;;;0.33;78.15;100659.77;1703140;82;27327;-82
2021/03/05 03:05:57;;;;;;;7.45;2.50;;;;;;;0.30;78.18;100658.71;1740667;80;25422;-79
2021/03/05 03:08:26;;;;;;;6.62;3.45;;;;;;;0.28;78.21;100657.50;1731324;81;25833;-80
2021/03/05 03:10:53;;;;;;;3.65;1.98;;;;;;;0.28;78.25;100667.22;1707532;81;25895;-80
2021/03/05 03:13:21;;;;;;;4.78;2.42;;;;;;;0.28;78.31;100668.03;1715498;81;25853;-80
2021/03/05 03:15:50;;;;;;;7.53;2.58;;;;;;;0.29;78.33;100665.77;1718534;80;27526;-80
2021/03/05 03:18:18;;;;;;;6.75;2.45;;;;;;;0.29;78.22;100670.20;1747152;80;25755;-81
2021/03/05 03:20:46;;;;;;;13.25;3.37;;;;;;;0.26;78.20;100669.95;1744939;80;25705;-81
2021/03/05 03:23:14;;;;;;;6.55;2.65;;;;;;;0.24;78.18;100663.96;1705173;82;25766;-81
2021/03/05 03:25:41;;;;;;;6.37;3.12;;;;;;;0.22;78.23;100672.47;1689421;81;25837;-80
2021/03/05 03:28:09;;;;;;;9.98;3.17;;;;;;;0.21;78.21;100675.23;1741950;80;27527;-81
2021/03/05 03:30:37;;;;;;;4.00;2.00;;;;;;;0.21;78.22;100679.18;1777175;79;25767;-81
2021/03/05 03:33:05;;;;;;;5.30;2.20;;;;;;;0.12;78.20;100666.72;1695529;80;25448;-82
2021/03/05 03:35:32;;;;;;;7.87;2.40;;;;;;;0.12;78.20;100666.72;1712351;81;25785;-80
2021/03/05 03:38:02;;;;;;;4.47;2.27;;;;;;;0.14;78.18;100680.60;1747866;80;25833;-80
2021/03/05 03:40:29;;;;;;;6.35;2.40;;;;;;;0.11;78.27;100677.72;1720534;80;27373;-80
2021/03/05 03:42:57;;;;;;;4.75;2.08;;;;;;;0.08;78.31;100683.24;1732134;80;25954;-81
2021/03/05 03:45:24;;;;;;;6.47;2.17;;;;;;;0.08;78.40;100683.24;1713436;81;25891;-81
2021/03/05 03:47:52;;;;;;;8.30;2.35;;;;;;;0.08;78.42;100692.93;1745437;80;25836;-81
2021/03/05 03:50:24;;;;;;;7.75;2.30;;;;;;;0.08;78.45;100693.77;1717711;80;26527;-80
2021/03/05 03:52:55;;;;;;;9.53;2.40;;;;;;;0.08;78.49;100689.83;1738887;80;27331;-80
2021/03/05 03:55:23;;;;;;;7.50;2.50;;;;;;;0.03;78.50;100702.97;1733630;81;25798;-80
2021/03/05 03:57:54;;;;;;;5.90;2.25;;;;;;;-0.02;78.62;100709.42;1713059;80;25904;-80
2021/03/05 04:00:22;;;;;;;5.37;1.87;;;;;;;-0.05;78.71;100708.36;1734619;80;26209;-80
2021/03/05 04:02:53;;;;;;;7.55;2.35;;;;;;;-0.05;78.75;100705.73;1747958;80;25829;-80
2021/03/05 04:05:26;;;;;;;5.47;2.22;;;;;;;-0.04;78.86;100707.86;1716895;80;28454;-82
2021/03/05 04:07:59;;;;;;;6.92;2.50;;;;;;;-0.07;78.79;100712.06;1755204;80;25667;-80
2021/03/05 04:10:27;;;;;;;6.35;2.33;;;;;;;-0.10;78.86;100710.96;1741563;80;26569;-81
2021/03/05 04:12:57;;;;;;;5.50;2.33;;;;;;;-0.12;78.86;100711.56;1742914;80;25800;-80
2021/03/05 04:15:25;;;;;;;9.55;3.15;;;;;;;-0.13;78.92;100719.11;1712392;80;25747;-81
2021/03/05 04:17:52;;;;;;;4.75;2.60;;;;;;;-0.12;78.96;100714.19;1737307;81;28739;-81
2021/03/05 04:20:24;;;;;;;6.47;2.12;;;;;;;-0.14;78.89;100722.22;1742623;80;25932;-81
2021/03/05 04:22:53;;;;;;;8.63;2.58;;;;;;;-0.18;78.91;100725.19;1750706;80;25402;-80
2021/03/05 04:25:20;;;;;;;4.15;2.42;;;;;;;-0.22;79.01;100727.23;1712305;80;26141;-81
2021/03/05 04:27:47;;;;;;;6.50;2.42;;;;;;;-0.24;79.12;100729.60;1716901;80;25843;-81
2021/03/05 04:30:16;;;;;;;9.65;2.33;;;;;;;-0.27;79.09;100728.50;1761800;80;27693;-81
2021/03/05 04:32:43;;;;;;;4.17;2.20;;;;;;;-0.27;79.16;100734.61;1707665;81;25846;-81
2021/03/05 04:35:12;;;;;;;9.40;2.67;;;;;;;-0.27;79.16;100737.25;1690961;81;25928;-81
2021/03/05 04:37:40;;;;;;;7.28;2.65;;;;;;;-0.29;79.11;100741.78;1734736;81;26171;-81
2021/03/05 04:40:11;;;;;;;8.93;2.58;;;;;;;-0.30;79.11;100741.91;1721625;82;25860;-81
2021/03/05 04:42:39;;;;;;;7.05;2.92;;;;;;;-0.31;79.11;100746.33;1689663;81;27431;-82
2021/03/05 04:45:08;;;;;;;4.78;2.42;;;;;;;-0.31;79.16;100748.11;1696339;81;25920;-80
2021/03/05 04:47:35;;;;;;;10.48;2.60;;;;;;;-0.34;79.18;100753.13;1711401;81;25960;-82
2021/03/05 04:50:05;;;;;;;5.35;2.30;;;;;;;-0.36;79.14;100755.50;1714452;81;25428;-81
2021/03/05 04:52:32;;;;;;;5.92;2.35;;;;;;;-0.41;79.21;100746.66;1712962;82;25756;-81
2021/03/05 04:55:00;;;;;;;4.95;1.92;;;;;;;-0.39;79.32;100759.69;1717094;80;27546;-81
2021/03/05 04:57:27;;;;;;;6.37;2.33;;;;;;;-0.37;79.28;100759.95;1722131;82;25427;-80
2021/03/05 04:59:55;;;;;;;8.33;2.65;;;;;;;-0.37;79.30;100763.89;1704710;82;25897;-81
2021/03/05 05:02:22;;;;;;;4.92;2.20;;;;;;;-0.40;79.19;100764.58;1695002;82;25863;-82
2021/03/05 05:04:49;;;;;;;13.38;3.67;;;;;;;-0.44;79.24;100766.61;1718531;80;26533;-81
2021/03/05 05:07:17;;;;;;;6.92;3.15;;;;;;;-0.48;79.30;100762.52;1714654;80;27549;-80
2021/03/05 05:09:45;;;;;;;8.08;2.77;;;;;;;-0.53;79.36;100763.33;1750099;80;25825;-81
2021/03/05 05:12:12;;;;;;;3.70;2.10;;;;;;;-0.56;79.50;100767.98;1758372;80;26296;-82
2021/03/05 05:14:40;;;;;;;10.50;2.52;;;;;;;-0.60;79.57;100762.59;1717967;80;26285;-81
2021/03/05 05:17:07;;;;;;;7.80;2.42;;;;;;;-0.63;79.65;100766.27;1742140;81;26439;-81
2021/03/05 05:19:34;;;;;;;8.63;2.80;;;;;;;-0.69;79.84;100756.67;1720297;81;28413;-81
2021/03/05 05:22:02;;;;;;;7.12;2.10;;;;;;;-0.67;79.81;100771.87;1709180;81;25995;-81
2021/03/05 05:24:29;;;;;;;4.92;2.45;;;;;;;-0.69;80.32;100773.30;1732412;81;25811;-81
2021/03/05 05:26:57;;;;;;;4.55;2.10;;;;;;;-0.71;79.80;100773.04;1704451;81;26659;-81
2021/03/05 05:29:24;;;;;;;5.55;2.50;;;;;;;-0.72;79.89;100781.87;1738564;81;25818;-82
2021/03/05 05:31:51;;;;;;;6.37;2.47;;;;;;;-0.79;80.03;100781.00;1756964;80;28724;-82
2021/03/05 05:34:19;;;;;;;5.00;2.00;;;;;;;-0.81;79.93;100781.59;1706430;81;25769;-81
2021/03/05 05:36:46;;;;;;;6.95;2.37;;;;;;;-0.84;80.13;100789.72;1689711;81;25815;-81
2021/03/05 05:39:13;;;;;;;5.08;2.50;;;;;;;-0.91;80.35;100784.52;1727848;81;25998;-81
2021/03/05 05:41:41;;;;;;;7.45;2.45;;;;;;;-0.87;80.23;100794.33;1719571;81;26247;-80
2021/03/05 05:44:09;;;;;;;7.55;2.92;;;;;;;-0.94;80.24;100787.85;1702285;81;27664;-80
2021/03/05 05:46:39;;;;;;;6.05;2.62;;;;;;;-0.87;80.29;100801.75;1711801;81;26420;-81
2021/03/05 05:49:08;;;;;;;9.65;3.45;;;;;;;-0.92;80.18;100797.28;1728322;81;26401;-81
2021/03/05 05:51:38;;;;;;;8.33;2.65;;;;;;;-0.86;80.19;100807.86;1687746;81;26375;-81
2021/03/05 05:54:12;;;;;;;5.40;2.42;;;;;;;-0.85;80.23;100810.84;1670462;81;25843;-81
2021/03/05 05:56:41;;;;;;;6.92;2.75;;;;;;;-0.87;80.22;100814.90;1706717;82;27549;-81
2021/03/05 05:59:09;;;;;;;5.72;3.30;;;;;;;-0.90;80.30;100819.55;1709901;81;25778;-81
2021/03/05 06:01:37;;;;;;;5.25;2.45;;;;;;;-0.92;80.39;100826.20;1709774;81;26477;-81
2021/03/05 06:04:07;;;;;;;11.78;3.67;;;;;;;-0.93;80.26;100831.58;1695652;81;25892;-81
2021/03/05 06:06:39;;;;;;;6.50;3.00;;;;;;;-0.93;80.26;100831.58;1717257;81;26328;-82
2021/03/05 06:09:07;;;;;;;7.75;3.10;;;;;;;-0.94;80.51;100832.55;1717655;81;28308;-83
2021/03/05 06:11:39;;;;;;;5.45;3.17;;;;;;;-0.94;80.51;100832.55;1693601;81;25880;-83
2021/03/05 06:14:12;;;;;;;6.72;3.10;;;;;;;-0.89;80.27;100850.13;1689188;81;25887;-82
2021/03/05 06:16:58;;;;;;;6.87;3.22;;;;;;;-0.90;80.30;100855.05;1750001;81;25772;-81
2021/03/05 06:19:28;;;;;;;6.10;3.02;;;;;;;-0.90;80.23;100859.80;1719308;81;25878;-83
2021/03/05 06:21:58;;;;;;;12.70;3.87;;;;;;;-0.91;80.40;100859.45;1719943;81;28631;-81
2021/03/05 06:24:27;;;;;;;8.13;3.33;;;;;;;-0.89;80.39;100872.48;1693488;81;25791;-81
2021/03/05 06:27:00;;;;;;;6.62;2.70;;;;;;;-0.86;80.50;100877.08;1705954;81;25997;-81
2021/03/05 06:29:46;;;;;;;9.53;3.35;;;;;;;-0.85;80.42;100868.69;1708536;81;26321;-81
2021/03/05 06:32:19;;;;;;;10.35;4.20;;;;;;;-0.77;80.46;100893.50;1710387;82;26768;-81
2021/03/05 06:34:51;;;;;;;7.30;3.20;;;;;;;-0.77;80.46;100893.50;1712897;82;27530;-81
2021/03/05 06:37:22;;;;;;;6.08;2.50;;;;;;;-0.76;80.21;100877.25;1714853;82;25767;-81
2021/03/05 06:40:06;;;;;;;6.78;4.05;;;;;;;-0.68;80.27;100895.95;1712533;82;25882;-82
2021/03/05 06:42:55;;;;;;;8.60;3.27;;;;;;;-0.64;80.32;100899.23;1735795;82;25902;-82
2021/03/05 06:45:35;;;;;;;7.72;3.37;;;;;;;-0.56;80.25;100899.52;1712167;82;26146;-81
2021/03/05 06:48:07;;;;;;;8.05;3.35;;;;;;;-0.52;80.00;100898.35;1712603;82;27538;-81
2021/03/05 06:50:38;;;;;;;9.60;3.25;;;;;;;-0.49;79.67;100902.91;1734102;81;25849;-81
2021/03/05 06:53:24;;;;;;;8.35;2.85;;;;;;;-0.47;79.53;100903.64;1706663;83;25738;-81
2021/03/05 06:55:53;;;;;;;8.63;3.15;;;;;;;-0.45;79.46;100912.27;1718074;80;26379;-81
2021/03/05 06:58:21;;;;;;;8.70;2.83;;;;;;;-0.44;79.10;100903.91;1725221;81;25834;-81
2021/03/05 07:00:52;;;;;;;9.23;2.98;;;;;;;-0.41;79.18;100915.08;1696532;83;27334;-81
2021/03/05 07:03:21;;;;;;;5.20;2.30;;;;;;;-0.36;79.37;100919.52;1666427;84;26439;-81
2021/03/05 07:05:53;;;;;;;4.62;2.62;;;;;;;-0.29;78.95;100925.18;1667827;83;25976;-82
2021/03/05 07:08:44;;;;;;;7.17;3.25;;;;;;;-0.24;78.71;100929.66;1714456;82;25971;-79
2021/03/05 07:11:17;;;;;;;5.90;3.15;;;;;;;-0.18;78.56;100930.52;1722459;82;26718;-82
2021/03/05 07:13:52;;;;;;;6.17;3.20;;;;;;;-0.13;78.41;100935.81;1686636;83;27551;-81
2021/03/05 07:16:20;;;;;;;11.78;3.70;;;;;;;-0.07;78.82;100934.08;1671347;83;25429;-81
2021/03/05 07:18:47;;;;;;;9.60;3.47;;;;;;;-0.05;78.27;100933.48;1662665;84;25743;-80
2021/03/05 07:21:19;;;;;;;8.30;3.33;;;;;;;-0.07;78.01;100936.70;1728176;82;25928;-82
2021/03/05 07:23:48;;;;;;;5.10;3.37;;;;;;;-0.13;77.80;100943.70;1700805;82;26252;-81
2021/03/05 07:26:18;;;;;;;7.70;3.58;;;;;;;-0.21;77.60;100946.05;1668276;83;27528;-81
2021/03/05 07:28:47;;;;;;;7.05;3.70;;;;;;;-0.29;77.58;100956.77;1678895;83;26313;-80
2021/03/05 07:31:19;;;;;;;8.35;3.90;;;;;;;-0.32;77.96;100949.92;1698190;83;25761;-81
2021/03/05 07:33:53;;;;;;;8.00;3.95;;;;;;;-0.31;78.08;100956.88;1703911;81;25831;-81
2021/03/05 07:36:23;;;;;;;11.30;3.67;;;;;;;-0.30;78.13;100956.41;1736407;81;26525;-81
2021/03/05 07:38:54;;;;;;;8.33;4.10;;;;;;;-0.33;77.92;100955.30;1704507;82;27538;-81
2021/03/05 07:41:23;;;;;;;6.85;4.08;;;;;;;-0.36;77.97;100958.98;1740188;81;25946;-81
2021/03/05 07:43:51;;;;;;;6.28;3.70;;;;;;;-0.37;77.91;100961.27;1692917;81;25823;-82
2021/03/05 07:46:20;;;;;;;7.62;3.47;;;;;;;-0.37;77.90;100959.11;1696015;81;26497;-82
2021/03/05 07:48:49;;;;;;;9.20;4.53;;;;;;;-0.34;78.02;100958.41;1710673;82;26678;-81
2021/03/05 07:51:19;;;;;;;8.03;4.20;;;;;;;-0.27;77.70;100961.44;1709832;81;28088;-81
2021/03/05 07:53:55;;;;;;;9.55;3.45;;;;;;;-0.24;77.65;100970.45;1689557;83;26084;-81
2021/03/05 07:56:46;;;;;;;7.50;3.00;;;;;;;-0.18;77.16;100967.38;1712796;83;25852;-81
2021/03/05 07:59:39;;;;;;;6.85;3.27;;;;;;;0.00;77.40;100969.52;1706836;81;26496;-76
2021/03/05 08:02:08;;;;;;;9.95;3.55;;;;;;;0.00;77.40;100969.52;1695604;81;26048;-78
2021/03/05 08:04:55;;;;;;;8.88;4.05;;;;;;;0.08;77.18;100970.30;1689587;81;27548;-78
2021/03/05 08:07:30;;;;;;;8.50;3.70;;;;;;;0.25;77.02;100960.70;1732966;81;25817;-76
2021/03/05 08:09:58;;;;;;;10.05;3.20;;;;;;;0.25;77.02;100960.70;1703337;81;25617;-77
2021/03/05 08:15:14;;;;;;;6.75;3.40;;;;;;;0.53;75.82;100968.25;1736056;81;25706;-78
2021/03/05 08:17:46;;;;;;;9.05;2.98;;;;;;;0.60;75.41;100968.14;1739576;81;28445;-77
2021/03/05 08:20:22;;;;;;;7.08;2.58;;;;;;;0.62;75.38;100957.50;1701353;82;26192;-77
2021/03/05 08:23:04;;;;;;;6.70;3.55;;;;;;;0.79;75.20;100977.67;1724882;82;25761;-75
2021/03/05 08:25:34;;;;;;;7.00;3.27;;;;;;;0.88;74.44;100983.23;1722267;81;25841;-80
2021/03/05 08:28:04;;;;;;;5.70;2.80;;;;;;;0.96;75.49;100985.65;1694856;81;32655;-76
2021/03/05 08:30:42;;;;;;;10.68;3.35;;;;;;;1.05;74.89;100978.33;1702433;83;28978;-77
2021/03/05 08:33:13;;;;;;;4.30;2.12;;;;;;;1.10;75.09;100988.06;1704526;83;26477;-76
2021/03/05 08:35:50;;;;;;;5.42;2.90;;;;;;;1.19;72.91;100980.77;1836787;77;26572;-80
2021/03/05 08:38:21;;;;;;;8.23;2.67;;;;;;;1.13;72.53;100982.57;1790240;78;26078;-78
2021/03/05 08:40:52;;;;;;;8.60;3.00;;;;;;;1.12;73.39;100992.75;1779300;78;27507;-77
2021/03/05 08:43:26;;;;;;;6.55;2.52;;;;;;;1.17;73.00;100988.44;1785250;78;26088;-78
2021/03/05 08:46:06;;;;;;;4.80;1.62;;;;;;;1.24;72.83;100992.30;1774446;78;25914;-79
2021/03/05 08:48:43;;;;;;;6.85;2.60;;;;;;;1.33;72.01;100991.56;1775406;78;26397;-79
2021/03/05 08:51:16;;;;;;;8.25;3.85;;;;;;;1.43;72.91;100986.77;1782552;79;25395;-78
2021/03/05 08:53:47;;;;;;;6.75;2.58;;;;;;;1.52;72.42;100987.39;1772732;79;27530;-77
2021/03/05 08:56:30;;;;;;;5.22;2.77;;;;;;;1.58;72.39;100988.73;1773623;78;25940;-78
2021/03/05 08:59:05;;;;;;;7.87;2.65;;;;;;;1.68;72.48;100991.00;1802468;78;26368;-76
2021/03/05 09:01:38;;;;;;;5.17;2.50;;;;;;;1.80;71.84;100983.41;1735717;78;26430;-79
2021/03/05 09:04:20;;;;;;;8.48;2.50;;;;;;;1.88;71.52;100994.70;1779180;78;25767;-78
2021/03/05 09:06:56;;;;;;;3.45;1.65;;;;;;;1.93;71.09;100989.87;1766566;80;27349;-77
2021/03/05 09:09:27;;;;;;;5.95;1.65;;;;;;;2.03;68.17;100994.30;1796270;78;25816;-77
2021/03/05 09:12:17;;;;;;;3.80;1.45;;;;;;;2.09;66.17;100993.84;1816399;77;25789;-78
2021/03/05 09:14:47;;;;;;;2.70;1.30;;;;;;;2.09;66.37;100999.13;1779072;79;26152;-77
2021/03/05 09:17:15;;;;;;;5.90;1.87;;;;;;;2.17;67.96;100999.81;1729982;81;27540;-77
2021/03/05 09:19:47;;;;;;;3.33;1.60;;;;;;;2.28;67.48;100995.83;1753372;80;26036;-76
2021/03/05 09:22:21;;;;;;;3.25;1.50;;;;;;;2.32;66.67;101003.39;1717322;82;25844;-78
2021/03/05 09:25:01;;;;;;;3.47;1.60;;;;;;;2.32;64.48;101006.03;1746745;81;25792;-79
2021/03/05 09:27:35;;;;;;;2.95;1.50;;;;;;;2.42;63.82;101003.98;1679977;82;25835;-78
2021/03/05 09:30:21;;;;;;;4.95;1.65;;;;;;;2.49;64.18;100999.84;1726368;82;27528;-78
2021/03/05 09:35:35;;;;;;;2.83;1.47;;;;;;;2.65;62.01;101008.22;1839107;77;26339;-78
2021/03/05 09:38:02;;;;;;;3.47;1.27;;;;;;;2.61;62.79;101009.44;1759180;80;25805;-77
2021/03/05 09:40:30;;;;;;;3.00;1.30;;;;;;;2.71;57.54;101013.84;1723941;81;28665;-78
2021/03/05 09:43:00;;;;;;;1.40;0.80;;;;;;;2.69;56.26;101013.61;1752364;81;25770;-78
2021/03/05 09:45:44;;;;;;;2.98;1.30;;;;;;;2.57;55.16;101025.17;1719862;81;25760;-80
2021/03/05 09:48:30;;;;;;;1.25;0.80;;;;;;;2.51;55.58;101021.70;1714161;82;25779;-79
2021/03/05 09:51:09;;;;;;;3.10;1.50;;;;;;;2.58;55.78;101012.32;1797667;77;25728;-79
2021/03/05 09:53:39;;;;;;;2.55;0.80;;;;;;;2.59;54.52;101020.12;1778287;79;26098;-78
2021/03/05 09:56:08;;;;;;;2.15;1.20;;;;;;;2.64;54.55;101025.88;1699941;82;28528;-78
2021/03/05 09:58:37;;;;;;;1.62;0.80;;;;;;;2.70;55.24;101021.88;1695500;80;25816;-77
2021/03/05 10:01:05;;;;;;;3.47;1.47;;;;;;;2.85;52.63;101020.61;1711868;82;26402;-79
2021/03/05 10:03:33;;;;;;;3.67;1.62;;;;;;;2.90;54.19;101032.99;1746243;80;25919;-78
2021/03/05 10:06:00;;;;;;;2.02;1.12;;;;;;;2.91;55.00;101029.36;1690140;80;25984;-78
2021/03/05 10:08:31;;;;;;;3.72;1.37;;;;;;;3.01;57.09;101035.59;1693175;80;28451;-78
2021/03/05 10:11:08;;;;;;;6.08;1.60;;;;;;;3.13;56.27;101036.73;1714671;80;25930;-81
2021/03/05 10:13:45;;;;;;;3.42;1.82;;;;;;;3.13;55.10;101043.34;1742649;80;25822;-77
2021/03/05 10:16:23;;;;;;;2.58;1.50;;;;;;;3.12;55.42;101052.23;1715385;80;26234;-78
2021/03/05 10:19:01;;;;;;;3.77;1.72;;;;;;;2.99;54.41;101051.58;1721103;80;25814;-78
2021/03/05 10:21:30;;;;;;;3.50;1.47;;;;;;;2.80;55.39;101046.13;1739148;80;28272;-78
2021/03/05 10:24:03;;;;;;;3.80;1.98;;;;;;;2.68;55.95;101055.08;1748731;80;25725;-76
2021/03/05 10:26:31;;;;;;;6.75;2.05;;;;;;;2.61;55.68;101053.89;1715549;82;25843;-76
2021/03/05 10:29:05;;;;;;;5.45;1.80;;;;;;;2.59;55.70;101069.05;1699348;80;26022;-80
2021/03/05 10:31:48;;;;;;;4.08;1.65;;;;;;;2.60;57.05;101070.73;1751183;80;26040;-77
2021/03/05 10:34:31;;;;;;;6.35;1.77;;;;;;;2.62;55.30;101072.77;1746140;80;27530;-78
2021/03/05 10:37:01;;;;;;;4.45;1.82;;;;;;;2.68;55.55;101072.74;1737855;80;26507;-77
2021/03/05 10:39:34;;;;;;;6.53;2.52;;;;;;;2.77;55.86;101082.11;1707516;82;25947;-78
2021/03/05 10:42:05;;;;;;;3.83;1.82;;;;;;;2.75;56.83;101090.66;1707698;82;25822;-79
2021/03/05 10:44:34;;;;;;;;;;;;;;;2.66;56.29;101090.06;1753276;80;26361;-78
2021/03/05 10:47:06;;;;;;;3.75;1.85;;;;;;;2.59;57.36;101093.34;1718998;80;28983;-78
2021/03/05 10:49:34;;;;;;;4.53;1.82;;;;;;;2.50;56.06;101102.86;1709362;82;25849;-80
2021/03/05 10:52:02;;;;;;;3.55;1.57;;;;;;;2.44;56.40;101104.65;1712586;80;25796;-78
2021/03/05 10:54:29;;;;;;;4.22;1.67;;;;;;;2.50;57.39;101097.58;1723118;80;25869;-78
2021/03/05 10:56:56;;;;;;;6.45;2.08;;;;;;;2.69;57.68;101093.80;1686983;80;25868;-77
2021/03/05 10:59:24;;;;;;;3.45;1.98;;;;;;;2.89;58.29;101093.00;1725098;80;27541;-80
2021/03/05 11:01:53;;;;;;;3.42;1.82;;;;;;;2.98;58.34;101100.19;1720800;82;25784;-77
2021/03/05 11:04:27;;;;;;;6.72;1.67;;;;;;;2.99;56.74;101094.42;1709983;82;25616;-78
2021/03/05 11:06:54;;;;;;;3.17;1.55;;;;;;;2.91;55.31;101102.13;1684632;82;25882;-75
2021/03/05 11:09:25;;;;;;;3.87;1.37;;;;;;;2.78;53.64;101109.41;1761440;80;25779;-78
2021/03/05 11:11:53;;;;;;;7.08;1.37;;;;;;;2.65;54.45;101102.11;1715498;81;27288;-76
2021/03/05 11:14:21;;;;;;;1.85;1.10;;;;;;;2.60;54.88;101114.38;1751780;80;25915;-78
2021/03/05 11:16:49;;;;;;;3.02;1.47;;;;;;;2.58;54.79;101104.87;1724479;80;26071;-79
2021/03/05 11:19:17;;;;;;;3.20;1.45;;;;;;;2.57;55.88;101105.82;1723647;80;25709;-78
2021/03/05 11:21:45;;;;;;;3.17;1.30;;;;;;;2.64;56.19;101107.02;1700484;80;25997;-78
2021/03/05 11:24:13;;;;;;;4.53;1.10;;;;;;;2.79;55.44;101106.62;1730901;80;27527;-78
2021/03/05 11:26:40;;;;;;;2.98;1.62;;;;;;;2.89;56.15;101100.09;1688081;82;25712;-77
2021/03/05 11:29:08;;;;;;;3.50;1.30;;;;;;;2.96;56.54;101093.34;1703686;80;25739;-78
2021/03/05 11:31:35;;;;;;;2.50;1.25;;;;;;;3.04;56.53;101102.80;1684764;80;26339;-78
2021/03/05 11:34:03;;;;;;;3.47;1.60;;;;;;;3.06;55.49;101109.66;1705597;80;25798;-77
2021/03/05 11:36:30;;;;;;;3.12;1.37;;;;;;;3.03;56.65;101104.63;1691117;82;28606;-78
2021/03/05 11:38:57;;;;;;;4.00;1.50;;;;;;;3.05;55.84;101098.73;1712871;80;25835;-77
2021/03/05 11:41:25;;;;;;;4.05;1.32;;;;;;;3.08;55.31;101099.78;1719921;80;25808;-79
2021/03/05 11:43:53;;;;;;;3.15;1.20;;;;;;;3.18;57.06;101104.31;1719666;81;26108;-80
2021/03/05 11:46:22;;;;;;;4.65;1.72;;;;;;;3.33;57.39;101109.19;1705612;80;26620;-79
2021/03/05 11:48:50;;;;;;;3.37;1.10;;;;;;;3.41;56.58;101101.91;1724686;80;28355;-78
2021/03/05 11:51:18;;;;;;;2.75;1.40;;;;;;;3.33;56.00;101099.92;1723283;81;25799;-79
2021/03/05 11:53:45;;;;;;;2.55;1.10;;;;;;;3.27;56.97;101102.23;1750605;80;26018;-78